createdAt,value
2019-01-28T00:01:38.695Z,19.93
2019-01-28T00:04:08.707Z,22.17
2019-01-28T00:06:38.340Z,18.30
2019-01-28T00:09:07.687Z,15.90
2019-01-28T00:11:37.309Z,18.50
2019-01-28T00:14:10.897Z,22.73
2019-01-28T00:16:40.977Z,19.10
2019-01-28T00:19:10.600Z,20.77
2019-01-28T00:21:42.630Z,23.63
2019-01-28T00:24:12.539Z,20.43
2019-01-28T00:26:43.535Z,20.97
2019-01-28T00:29:14.964Z,17.00
2019-01-28T00:31:44.658Z,20.13
2019-01-28T00:34:14.157Z,20.87
2019-01-28T00:36:44.659Z,21.47
2019-01-28T00:39:13.969Z,19.77
2019-01-28T00:41:43.458Z,18.97
2019-01-28T00:44:13.411Z,18.30
2019-01-28T00:46:43.427Z,20.97
2019-01-28T00:49:12.561Z,15.97
2019-01-28T00:51:42.159Z,20.10
2019-01-28T00:54:12.117Z,16.63
2019-01-28T00:56:41.610Z,16.80
2019-01-28T00:59:13.106Z,14.17
2019-01-28T01:01:43.089Z,12.77
2019-01-28T01:04:13.060Z,15.83
2019-01-28T01:06:43.443Z,13.90
2019-01-28T01:09:12.534Z,17.67
2019-01-28T01:11:45.075Z,17.00
2019-01-28T01:14:15.981Z,11.90
2019-01-28T01:16:45.775Z,17.63
2019-01-28T01:19:15.141Z,11.47
2019-01-28T01:21:46.124Z,11.67
2019-01-28T01:24:17.404Z,11.27
2019-01-28T01:26:51.197Z,11.57
2019-01-28T01:29:21.291Z,11.77
2019-01-28T01:31:51.199Z,12.43
2019-01-28T01:34:21.385Z,9.83
2019-01-28T01:36:52.511Z,12.00
2019-01-28T01:39:22.598Z,11.50
2019-01-28T01:41:55.083Z,11.83
2019-01-28T01:44:24.371Z,11.13
2019-01-28T01:46:53.983Z,11.10
2019-01-28T01:49:25.334Z,12.17
2019-01-28T01:51:54.766Z,13.03
2019-01-28T01:54:24.357Z,14.70
2019-01-28T01:56:55.452Z,11.07
2019-01-28T01:59:26.000Z,9.73
2019-01-28T02:01:55.717Z,9.97
2019-01-28T02:04:25.678Z,11.80
2019-01-28T02:06:55.418Z,10.13
2019-01-28T02:09:31.757Z,11.23
2019-01-28T02:12:02.314Z,11.17
2019-01-28T02:14:32.004Z,12.87
2019-01-28T02:17:01.581Z,10.73
2019-01-28T02:19:32.879Z,9.43
2019-01-28T02:22:02.393Z,11.93
2019-01-28T02:24:31.930Z,9.47
2019-01-28T02:27:01.820Z,10.83
2019-01-28T02:29:31.929Z,12.87
2019-01-28T02:32:01.240Z,9.63
2019-01-28T02:34:31.661Z,10.03
2019-01-28T02:37:02.649Z,11.50
2019-01-28T02:39:32.522Z,12.27
2019-01-28T02:42:02.134Z,9.53
2019-01-28T02:44:32.272Z,10.07
2019-01-28T02:47:03.865Z,11.70
2019-01-28T02:49:34.325Z,12.23
2019-01-28T02:52:03.880Z,9.80
2019-01-28T02:54:33.564Z,9.97
2019-01-28T02:57:02.880Z,10.10
2019-01-28T02:59:32.803Z,9.63
2019-01-28T03:02:56.808Z,10.10
2019-01-28T03:05:57.271Z,11.00
2019-01-28T03:08:43.955Z,10.23
2019-01-28T03:11:30.770Z,9.90
2019-01-28T03:14:18.189Z,10.53
2019-01-28T03:17:08.403Z,8.23
2019-01-28T03:19:55.091Z,9.90
2019-01-28T03:22:41.893Z,10.17
2019-01-28T03:25:28.781Z,7.47
2019-01-28T03:28:15.446Z,8.87
2019-01-28T03:30:44.627Z,7.50
2019-01-28T03:33:13.074Z,9.80
2019-01-28T03:35:41.128Z,8.23
2019-01-28T03:38:10.162Z,8.83
2019-01-28T03:40:38.916Z,7.50
2019-01-28T03:43:08.499Z,7.57
2019-01-28T03:45:36.946Z,6.30
2019-01-28T03:48:05.292Z,5.77
2019-01-28T03:50:34.378Z,7.27
2019-01-28T03:53:02.913Z,5.60
2019-01-28T03:55:31.723Z,5.40
2019-01-28T03:58:00.181Z,5.87
2019-01-28T04:03:32.357Z,5.47
2019-01-28T04:06:18.772Z,5.43
2019-01-28T04:09:08.178Z,5.73
2019-01-28T04:11:54.918Z,5.33
2019-01-28T04:14:41.406Z,5.40
2019-01-28T04:17:27.741Z,5.33
2019-01-28T04:20:15.524Z,6.23
2019-01-28T04:23:01.873Z,6.60
2019-01-28T04:25:48.192Z,7.43
2019-01-28T04:28:35.301Z,6.50
2019-01-28T04:31:03.839Z,6.70
2019-01-28T04:33:32.756Z,6.87
2019-01-28T04:36:01.117Z,8.00
2019-01-28T04:38:29.780Z,7.30
2019-01-28T04:40:58.604Z,7.70
2019-01-28T04:43:27.733Z,6.67
2019-01-28T04:45:56.213Z,7.50
2019-01-28T04:48:24.590Z,7.07
2019-01-28T04:50:53.180Z,7.47
2019-01-28T04:53:21.754Z,7.87
2019-01-28T04:55:50.118Z,7.60
2019-01-28T04:58:18.415Z,8.10
2019-01-28T05:00:46.712Z,7.47
2019-01-28T05:03:15.698Z,8.43
2019-01-28T05:05:44.227Z,9.63
2019-01-28T05:08:13.002Z,9.33
2019-01-28T05:10:41.364Z,9.43
2019-01-28T05:13:09.597Z,10.60
2019-01-28T05:15:39.184Z,8.40
2019-01-28T05:18:07.759Z,9.13
2019-01-28T05:20:36.072Z,8.90
2019-01-28T05:23:04.791Z,8.80
2019-01-28T05:25:33.921Z,9.20
2019-01-28T05:28:04.220Z,9.77
2019-01-28T05:30:33.204Z,10.90
2019-01-28T05:33:01.937Z,15.47
2019-01-28T05:35:30.139Z,15.80
2019-01-28T05:37:58.709Z,13.10
2019-01-28T05:40:26.998Z,13.47
2019-01-28T05:42:55.274Z,12.53
2019-01-28T05:45:24.259Z,12.90
2019-01-28T05:47:52.828Z,14.63
2019-01-28T05:50:21.122Z,11.70
2019-01-28T05:52:49.390Z,12.50
2019-01-28T05:55:21.931Z,15.57
2019-01-28T05:57:50.500Z,15.17
2019-01-28T06:00:22.950Z,13.07
2019-01-28T06:02:51.656Z,14.73
2019-01-28T06:05:20.361Z,20.03
2019-01-28T06:07:48.773Z,16.63
2019-01-28T06:10:17.096Z,18.20
2019-01-28T06:12:45.540Z,17.00
2019-01-28T06:15:15.345Z,17.23
2019-01-28T06:17:44.338Z,24.50
2019-01-28T06:20:18.378Z,17.57
2019-01-28T06:22:50.836Z,18.47
2019-01-28T06:25:19.896Z,25.40
2019-01-28T06:27:48.984Z,23.30
2019-01-28T06:30:22.997Z,20.23
2019-01-28T06:32:52.316Z,20.17
2019-01-28T06:35:21.278Z,21.03
2019-01-28T06:37:51.822Z,24.33
2019-01-28T06:40:25.163Z,32.30
2019-01-28T06:42:53.534Z,21.67
2019-01-28T06:45:22.308Z,21.50
2019-01-28T06:47:50.548Z,22.37
2019-01-28T06:50:19.553Z,21.73
2019-01-28T06:52:47.885Z,23.27
2019-01-28T06:55:17.002Z,26.90
2019-01-28T06:57:45.490Z,28.60
2019-01-28T07:00:19.785Z,37.50
2019-01-28T07:02:48.103Z,35.00
2019-01-28T07:05:16.381Z,32.30
2019-01-28T07:07:44.669Z,34.57
2019-01-28T07:10:14.456Z,36.93
2019-01-28T07:12:43.578Z,34.90
2019-01-28T07:15:13.605Z,38.90
2019-01-28T07:17:42.058Z,41.03
2019-01-28T07:20:13.729Z,38.87
2019-01-28T07:22:42.730Z,36.67
2019-01-28T07:25:11.063Z,39.03
2019-01-28T07:27:39.319Z,43.73
2019-01-28T07:30:10.044Z,36.70
2019-01-28T07:32:38.288Z,38.10
2019-01-28T07:35:07.114Z,37.07
2019-01-28T07:37:35.878Z,38.63
2019-01-28T07:40:04.917Z,33.67
2019-01-28T07:42:33.097Z,44.03
2019-01-28T07:45:01.749Z,33.80
2019-01-28T07:47:30.446Z,35.27
2019-01-28T07:49:58.970Z,39.57
2019-01-28T07:52:27.057Z,34.03
2019-01-28T07:54:55.756Z,35.00
2019-01-28T07:57:23.987Z,29.13
2019-01-28T07:59:52.399Z,32.43
2019-01-28T08:02:21.272Z,30.27
2019-01-28T08:05:07.457Z,31.70
2019-01-28T08:07:35.559Z,37.60
2019-01-28T08:10:05.971Z,35.20
2019-01-28T08:12:34.828Z,37.20
2019-01-28T08:15:05.216Z,36.33
2019-01-28T08:17:33.519Z,35.63
2019-01-28T08:20:01.929Z,40.07
2019-01-28T08:22:30.378Z,39.43
2019-01-28T08:24:58.717Z,38.70
2019-01-28T08:27:27.573Z,40.60
2019-01-28T08:29:55.798Z,45.30
2019-01-28T08:32:24.677Z,45.13
2019-01-28T08:34:53.023Z,49.10
2019-01-28T08:37:21.554Z,48.57
2019-01-28T08:39:49.796Z,48.80
2019-01-28T08:42:19.061Z,47.93
2019-01-28T08:44:47.665Z,47.33
2019-01-28T08:47:15.905Z,44.23
2019-01-28T08:49:44.206Z,46.10
2019-01-28T08:52:13.100Z,43.97
2019-01-28T08:54:41.593Z,48.03
2019-01-28T08:57:10.708Z,45.73
2019-01-28T08:59:41.337Z,46.00
2019-01-28T09:02:10.235Z,47.93
2019-01-28T09:04:38.611Z,48.20
2019-01-28T09:07:09.048Z,41.97
2019-01-28T09:09:40.214Z,42.77
2019-01-28T09:12:10.336Z,43.93
2019-01-28T09:14:38.819Z,46.13
2019-01-28T09:17:08.783Z,48.10
2019-01-28T09:19:37.289Z,48.77
2019-01-28T09:22:05.827Z,49.37
2019-01-28T09:24:34.541Z,45.83
2019-01-28T09:27:03.153Z,56.13
2019-01-28T09:29:34.036Z,49.50
2019-01-28T09:32:03.177Z,44.87
2019-01-28T09:34:31.546Z,51.70
2019-01-28T09:36:59.993Z,44.37
2019-01-28T09:39:29.637Z,47.53
2019-01-28T09:41:58.376Z,50.43
2019-01-28T09:44:27.271Z,52.70
2019-01-28T09:46:55.518Z,45.67
2019-01-28T09:49:24.127Z,30.20
2019-01-28T09:51:52.620Z,29.10
2019-01-28T09:54:22.804Z,38.67
2019-01-28T09:56:51.661Z,24.30
2019-01-28T09:59:20.203Z,22.60
2019-01-28T10:01:48.414Z,22.33
2019-01-28T10:04:16.594Z,21.60
2019-01-28T10:06:45.349Z,22.53
2019-01-28T10:09:14.471Z,21.07
2019-01-28T10:11:43.421Z,23.03
2019-01-28T10:14:11.759Z,29.40
2019-01-28T10:16:40.923Z,33.83
2019-01-28T10:19:09.391Z,30.13
2019-01-28T10:21:45.664Z,32.40
2019-01-28T10:24:26.070Z,33.30
2019-01-28T10:26:55.339Z,31.03
2019-01-28T10:29:23.866Z,36.53
2019-01-28T10:31:52.002Z,31.20
2019-01-28T10:34:20.488Z,33.57
2019-01-28T10:36:48.737Z,31.90
2019-01-28T10:39:16.832Z,36.77
2019-01-28T10:41:45.101Z,32.87
2019-01-28T10:44:13.576Z,30.63
2019-01-28T10:46:41.663Z,25.70
2019-01-28T10:49:11.762Z,30.40
2019-01-28T10:51:40.395Z,28.57
2019-01-28T10:54:09.128Z,28.90
2019-01-28T10:56:38.544Z,27.20
2019-01-28T10:59:06.793Z,29.07
2019-01-28T11:01:35.317Z,22.87
2019-01-28T11:04:03.689Z,29.23
2019-01-28T11:06:32.547Z,30.37
2019-01-28T11:09:01.300Z,26.73
2019-01-28T11:11:29.702Z,24.07
2019-01-28T11:13:57.900Z,23.33
2019-01-28T11:16:26.127Z,25.47
2019-01-28T11:18:58.733Z,21.13
2019-01-28T11:21:27.207Z,20.33
2019-01-28T11:23:56.215Z,22.00
2019-01-28T11:26:25.129Z,23.97
2019-01-28T11:28:53.427Z,22.23
2019-01-28T11:31:21.939Z,22.10
2019-01-28T11:33:55.329Z,19.93
2019-01-28T11:36:26.931Z,23.43
2019-01-28T11:38:55.601Z,19.67
2019-01-28T11:41:24.347Z,22.33
2019-01-28T11:43:53.054Z,19.17
2019-01-28T11:46:21.279Z,21.37
2019-01-28T11:48:50.301Z,18.70
2019-01-28T11:51:18.544Z,19.17
2019-01-28T11:53:47.613Z,19.33
2019-01-28T11:56:16.399Z,20.23
2019-01-28T11:58:45.414Z,17.00
2019-01-28T12:01:24.440Z,19.30
2019-01-28T12:03:52.767Z,19.43
2019-01-28T12:06:21.025Z,17.00
2019-01-28T12:08:49.472Z,13.73
2019-01-28T12:11:18.501Z,17.77
2019-01-28T12:13:47.097Z,19.00
2019-01-28T12:16:17.195Z,18.27
2019-01-28T12:18:47.073Z,17.90
2019-01-28T12:24:58.355Z,21.60
2019-01-28T12:27:46.301Z,18.63
2019-01-28T12:42:43.038Z,19.50
2019-01-28T12:48:59.184Z,19.07
2019-01-28T12:51:46.689Z,17.67
2019-01-28T12:54:34.425Z,16.20
2019-01-28T13:03:27.027Z,15.27
2019-01-28T13:09:04.675Z,19.53
2019-01-28T13:11:53.799Z,18.43
2019-01-28T13:21:20.812Z,10.63
2019-01-28T13:24:07.889Z,8.77
2019-01-28T13:26:55.524Z,5.83
2019-01-28T13:39:13.157Z,3.70
2019-01-28T13:42:00.297Z,4.73
2019-01-28T13:50:59.042Z,1.07
2019-01-28T13:53:57.082Z,1.70
2019-01-28T13:56:45.456Z,1.83
2019-01-28T13:59:32.509Z,1.97
2019-01-28T14:05:03.741Z,2.10
2019-01-28T14:07:52.952Z,2.57
2019-01-28T14:10:50.833Z,1.63
2019-01-28T14:13:37.256Z,3.67
2019-01-28T14:22:31.879Z,2.73
2019-01-28T14:25:22.150Z,3.30
2019-01-28T14:28:11.011Z,3.10
2019-01-28T14:34:39.797Z,2.77
2019-01-28T14:40:31.000Z,3.67
2019-01-28T14:43:22.318Z,2.53
2019-01-28T14:46:11.453Z,2.70
2019-01-28T14:52:55.404Z,2.70
2019-01-28T14:58:47.078Z,2.20
2019-01-28T15:01:34.626Z,2.07
2019-01-28T15:04:09.679Z,2.97
2019-01-28T15:06:38.253Z,3.10
2019-01-28T15:09:11.221Z,3.67
2019-01-28T15:11:42.325Z,2.90
2019-01-28T15:14:11.470Z,4.80
2019-01-28T15:16:42.424Z,5.67
2019-01-28T15:19:17.595Z,3.47
2019-01-28T15:21:48.922Z,3.57
2019-01-28T15:24:18.337Z,3.63
2019-01-28T15:26:47.677Z,4.87
2019-01-28T15:29:18.840Z,2.90
2019-01-28T15:31:48.421Z,4.23
2019-01-28T15:34:21.105Z,2.83
2019-01-28T15:36:53.112Z,3.03
2019-01-28T15:39:28.035Z,4.20
2019-01-28T15:41:57.206Z,7.60
2019-01-28T15:44:28.013Z,6.07
2019-01-28T15:46:57.059Z,4.87
2019-01-28T15:49:29.384Z,7.97
2019-01-28T15:52:00.483Z,6.40
2019-01-28T15:54:30.787Z,8.93
2019-01-28T15:57:03.060Z,4.20
2019-01-28T15:59:35.259Z,4.53
2019-01-28T16:02:06.213Z,5.93
2019-01-28T16:10:43.954Z,5.57
2019-01-28T16:13:30.846Z,3.97
2019-01-28T16:16:18.167Z,3.97
2019-01-28T16:21:53.859Z,4.30
2019-01-28T16:24:40.220Z,4.37
2019-01-28T16:27:28.239Z,3.63
2019-01-28T16:30:18.170Z,4.70
2019-01-28T16:36:02.561Z,6.07
2019-01-28T16:38:48.693Z,6.40
2019-01-28T16:41:35.681Z,5.30
2019-01-28T16:44:22.421Z,6.23
2019-01-28T16:50:09.767Z,5.70
2019-01-28T16:52:57.677Z,5.23
2019-01-28T16:56:43.780Z,5.73
2019-01-28T16:59:40.849Z,4.37
2019-01-28T17:02:10.399Z,6.97
2019-01-28T17:04:38.562Z,7.07
2019-01-28T17:07:07.262Z,6.03
2019-01-28T17:09:36.483Z,8.27
2019-01-28T17:12:08.116Z,10.03
2019-01-28T17:14:36.487Z,11.43
2019-01-28T17:17:05.037Z,6.77
2019-01-28T17:19:33.340Z,6.20
2019-01-28T17:22:01.437Z,8.33
2019-01-28T17:24:30.993Z,9.00
2019-01-28T17:26:59.085Z,11.90
2019-01-28T17:29:28.689Z,11.87
2019-01-28T17:31:57.036Z,8.73
2019-01-28T17:34:25.639Z,11.20
2019-01-28T17:36:54.561Z,9.73
2019-01-28T17:39:25.534Z,13.60
2019-01-28T17:41:55.669Z,13.43
2019-01-28T17:44:24.565Z,11.17
2019-01-28T17:46:53.362Z,9.70
2019-01-28T17:49:22.293Z,18.53
2019-01-28T17:51:50.358Z,13.87
2019-01-28T17:54:19.033Z,16.40
2019-01-28T17:56:48.060Z,15.93
2019-01-28T17:59:16.390Z,17.40
2019-01-28T18:01:45.463Z,13.10
2019-01-28T18:04:25.871Z,18.90
2019-01-28T18:06:54.878Z,19.03
2019-01-28T18:09:23.331Z,18.57
2019-01-28T18:11:52.232Z,15.57
2019-01-28T18:14:21.225Z,19.03
2019-01-28T18:16:50.010Z,20.13
2019-01-28T18:19:19.505Z,17.10
2019-01-28T18:21:48.042Z,18.47
2019-01-28T18:24:16.286Z,15.77
2019-01-28T18:26:44.824Z,21.60
2019-01-28T18:29:13.406Z,16.07
2019-01-28T18:31:42.023Z,17.23
2019-01-28T18:34:10.114Z,20.73
2019-01-28T18:36:40.038Z,22.37
2019-01-28T18:39:12.286Z,23.27
2019-01-28T18:41:42.956Z,15.60
2019-01-28T18:44:12.863Z,13.17
2019-01-28T18:46:41.222Z,18.67
2019-01-28T18:49:09.243Z,23.77
2019-01-28T18:51:41.968Z,16.50
2019-01-28T18:54:11.360Z,16.30
2019-01-28T18:56:39.842Z,17.73
2019-01-28T18:59:09.678Z,15.93
2019-01-28T19:01:40.695Z,21.40
2019-01-28T19:04:13.479Z,23.10
2019-01-28T19:07:10.937Z,23.50
2019-01-28T19:10:01.231Z,19.57
2019-01-28T19:12:41.895Z,17.37
2019-01-28T19:15:23.588Z,22.20
2019-01-28T19:18:14.290Z,15.77
2019-01-28T19:21:08.194Z,19.97
2019-01-28T19:23:35.380Z,13.97
2019-01-28T19:26:04.882Z,13.57
2019-01-28T19:28:33.497Z,13.00
2019-01-28T19:31:02.153Z,19.23
2019-01-28T19:33:30.725Z,20.73
2019-01-28T19:35:59.460Z,16.37
2019-01-28T19:38:28.154Z,16.30
2019-01-28T19:40:56.490Z,20.00
2019-01-28T19:43:26.536Z,14.40
2019-01-28T19:45:55.359Z,13.83
2019-01-28T19:48:23.595Z,17.97
2019-01-28T19:50:54.076Z,17.77
2019-01-28T19:53:22.497Z,28.57
2019-01-28T19:55:50.852Z,44.00
2019-01-28T19:58:19.555Z,31.33
2019-01-28T20:00:49.271Z,45.27
2019-01-28T20:03:17.675Z,18.33
2019-01-28T20:05:45.793Z,31.33
2019-01-28T20:08:15.124Z,17.53
2019-01-28T20:10:43.327Z,24.90
2019-01-28T20:13:11.837Z,20.93
2019-01-28T20:15:40.578Z,22.37
2019-01-28T20:18:09.975Z,24.57
2019-01-28T20:20:39.758Z,24.83
2019-01-28T20:23:07.890Z,34.67
2019-01-28T20:25:37.094Z,25.70
2019-01-28T20:28:05.820Z,18.93
2019-01-28T20:30:34.337Z,16.50
2019-01-28T20:33:02.724Z,18.17
2019-01-28T20:35:30.758Z,16.47
2019-01-28T20:38:15.577Z,15.67
2019-01-28T20:40:49.970Z,17.90
2019-01-28T20:43:24.175Z,17.07
2019-01-28T20:45:53.079Z,25.30
2019-01-28T20:48:21.933Z,21.00
2019-01-28T20:50:50.691Z,16.83
2019-01-28T20:53:19.847Z,18.10
2019-01-28T20:55:49.199Z,17.87
2019-01-28T20:58:19.347Z,16.40
2019-01-28T21:00:50.775Z,18.30
2019-01-28T21:03:24.823Z,13.80
2019-01-28T21:05:53.625Z,13.50
2019-01-28T21:08:23.690Z,13.47
2019-01-28T21:10:51.982Z,13.30
2019-01-28T21:13:21.154Z,17.07
2019-01-28T21:15:50.377Z,12.40
2019-01-28T21:18:18.680Z,16.77
2019-01-28T21:20:46.938Z,11.17
2019-01-28T21:23:15.525Z,10.50
2019-01-28T21:25:44.206Z,13.63
2019-01-28T21:28:12.389Z,17.13
2019-01-28T21:30:40.541Z,16.13
2019-01-28T21:33:09.012Z,15.07
2019-01-28T21:35:57.200Z,18.37
2019-01-28T21:38:30.287Z,18.37
2019-01-28T21:40:58.972Z,11.43
2019-01-28T21:43:29.347Z,17.50
2019-01-28T21:45:58.783Z,15.53
2019-01-28T21:48:27.679Z,14.13
2019-01-28T21:50:56.143Z,13.30
2019-01-28T21:53:25.490Z,11.70
2019-01-28T21:55:53.536Z,13.20
2019-01-28T21:58:22.592Z,9.87
2019-01-28T22:00:51.003Z,14.97
2019-01-28T22:03:20.003Z,14.10
2019-01-28T22:05:48.795Z,13.27
2019-01-28T22:08:17.505Z,7.50
2019-01-28T22:10:47.090Z,12.70
2019-01-28T22:13:15.374Z,11.73
2019-01-28T22:15:44.448Z,9.03
2019-01-28T22:18:13.460Z,12.00
2019-01-28T22:20:42.826Z,15.17
2019-01-28T22:23:11.324Z,9.97
2019-01-28T22:25:39.553Z,14.03
2019-01-28T22:28:08.020Z,10.83
2019-01-28T22:30:37.224Z,14.80
2019-01-28T22:33:08.932Z,11.60
2019-01-28T22:35:36.138Z,12.73
2019-01-28T22:38:05.154Z,9.80
2019-01-28T22:40:33.634Z,10.63
2019-01-28T22:43:01.828Z,16.93
2019-01-28T22:45:30.227Z,10.33
2019-01-28T22:48:00.655Z,10.10
2019-01-28T22:50:28.925Z,14.30
2019-01-28T22:52:57.398Z,14.33
2019-01-28T22:55:26.275Z,19.27
2019-01-28T22:57:54.408Z,13.17
2019-01-28T23:00:58.196Z,14.43
2019-01-28T23:03:28.405Z,20.00
2019-01-28T23:05:57.096Z,19.10
2019-01-28T23:08:28.622Z,15.60
2019-01-28T23:10:56.817Z,21.30
2019-01-28T23:13:25.513Z,14.90
2019-01-28T23:15:53.558Z,13.63
2019-01-28T23:18:22.423Z,14.13
2019-01-28T23:20:51.346Z,10.80
2019-01-28T23:23:19.839Z,12.07
2019-01-28T23:25:48.300Z,11.47
2019-01-28T23:28:16.798Z,13.40
2019-01-28T23:30:44.999Z,15.23
2019-01-28T23:33:13.106Z,15.17
2019-01-28T23:35:41.464Z,15.53
2019-01-28T23:38:10.505Z,14.67
2019-01-28T23:40:38.952Z,17.47
2019-01-28T23:43:07.481Z,22.93
2019-01-28T23:45:36.484Z,21.50
2019-01-28T23:48:05.636Z,19.83
2019-01-28T23:50:34.543Z,28.57
2019-01-28T23:53:02.737Z,17.87
2019-01-28T23:55:31.271Z,16.43
2019-01-28T23:57:59.686Z,13.70
